Time;durP1;ratioP1;P1;durP2;ratioP2;P2;SDS_P1;SDS_P2;PMS_P1;PMS_P2;Temp;Humidity;BMP_temperature;BMP_pressure;BME280_temperature;BME280_humidity;BME280_pressure;Samples;Min_cycle;Max_cycle;Signal;HPM_P1;HPM_P2
2021/04/30 00:00:50;;;;;;;66.95;35.20;;;11.40;99.90;;;;;;5071037;28;20028;-74
2021/04/30 00:03:16;;;;;;;64.38;33.65;;;11.30;99.90;;;;;;5072192;28;20044;-73
2021/04/30 00:05:41;;;;;;;60.95;31.58;;;11.40;99.90;;;;;;5072305;28;20056;-74
2021/04/30 00:08:07;;;;;;;59.30;30.73;;;11.40;99.90;;;;;;5071119;28;20024;-73
2021/04/30 00:10:33;;;;;;;55.90;29.65;;;11.40;99.90;;;;;;5074653;28;20029;-74
2021/04/30 00:12:58;;;;;;;55.50;29.65;;;11.40;99.90;;;;;;5075978;28;20444;-74
2021/04/30 00:15:24;;;;;;;53.97;26.75;;;11.40;99.90;;;;;;5076219;28;20020;-74
2021/04/30 00:17:50;;;;;;;62.63;29.52;;;11.40;99.90;;;;;;5076181;28;20069;-73
2021/04/30 00:20:16;;;;;;;54.28;28.05;;;11.40;99.90;;;;;;5074180;28;20028;-74
2021/04/30 00:22:43;;;;;;;55.15;26.73;;;11.40;99.90;;;;;;5075960;28;20031;-73
2021/04/30 00:25:10;;;;;;;50.70;26.98;;;11.40;99.90;;;;;;5076053;28;20095;-73
2021/04/30 00:27:36;;;;;;;50.15;26.42;;;11.40;99.90;;;;;;5075777;28;20052;-74
2021/04/30 00:30:02;;;;;;;47.67;26.80;;;11.40;99.90;;;;;;5074653;28;20367;-74
2021/04/30 00:32:28;;;;;;;52.42;28.40;;;11.40;99.90;;;;;;5075588;28;20032;-73
2021/04/30 00:34:54;;;;;;;53.90;28.55;;;11.20;99.90;;;;;;5075198;28;20035;-74
2021/04/30 00:37:20;;;;;;;55.45;28.45;;;11.10;99.90;;;;;;5075654;28;20033;-74
2021/04/30 00:39:45;;;;;;;53.00;26.88;;;11.10;99.90;;;;;;5075663;28;20052;-74
2021/04/30 00:42:14;;;;;;;60.17;29.90;;;11.10;99.90;;;;;;5074358;28;20028;-73
2021/04/30 00:44:43;;;;;;;57.78;29.58;;;11.10;99.90;;;;;;5075705;28;20032;-74
2021/04/30 00:47:27;;;;;;;52.78;29.17;;;11.10;99.90;;;;;;5075153;28;20028;-74
2021/04/30 00:49:53;;;;;;;50.78;27.95;;;11.20;99.90;;;;;;5075534;28;20466;-73
2021/04/30 00:52:19;;;;;;;51.03;27.92;;;11.20;99.90;;;;;;5075371;28;20051;-74
2021/04/30 00:54:45;;;;;;;52.53;26.77;;;11.20;99.90;;;;;;5075614;28;20021;-74
2021/04/30 00:57:11;;;;;;;61.42;28.73;;;11.20;99.90;;;;;;5074939;28;20032;-74
2021/04/30 00:59:38;;;;;;;51.65;29.08;;;11.20;99.90;;;;;;5072864;28;20064;-73
2021/04/30 01:02:04;;;;;;;53.08;28.88;;;11.20;99.90;;;;;;5073781;28;20090;-73
2021/04/30 01:04:29;;;;;;;55.15;28.98;;;11.30;99.90;;;;;;5074044;28;20033;-74
2021/04/30 01:06:55;;;;;;;55.65;30.67;;;11.30;99.90;;;;;;5073866;28;20089;-73
2021/04/30 01:09:21;;;;;;;53.17;28.95;;;11.30;99.90;;;;;;5073937;28;20131;-73
2021/04/30 01:11:47;;;;;;;51.22;27.63;;;11.20;99.90;;;;;;5075123;28;20033;-73
2021/04/30 01:14:12;;;;;;;54.58;29.75;;;11.20;99.90;;;;;;5075083;28;20067;-74
2021/04/30 01:16:38;;;;;;;51.50;27.27;;;11.20;99.90;;;;;;5075172;28;20055;-73
2021/04/30 01:19:04;;;;;;;55.85;26.83;;;11.10;99.90;;;;;;5074738;28;20515;-73
2021/04/30 01:21:29;;;;;;;52.90;29.13;;;11.10;99.90;;;;;;5073589;28;20529;-74
2021/04/30 01:23:55;;;;;;;50.63;27.90;;;11.10;99.90;;;;;;5074685;28;20039;-73
2021/04/30 01:26:21;;;;;;;60.60;30.70;;;11.10;99.90;;;;;;5074939;28;20035;-73
2021/04/30 01:28:47;;;;;;;51.15;27.60;;;11.10;99.90;;;;;;5073346;28;20394;-73
2021/04/30 01:31:14;;;;;;;51.33;27.98;;;11.00;99.90;;;;;;5074682;28;20028;-73
2021/04/30 01:33:39;;;;;;;57.60;29.20;;;11.00;99.90;;;;;;5072983;28;20115;-74
2021/04/30 01:36:06;;;;;;;55.65;29.25;;;11.10;99.90;;;;;;5073199;28;20048;-73
2021/04/30 01:38:32;;;;;;;60.30;28.50;;;11.10;99.90;;;;;;5073298;28;20161;-74
2021/04/30 01:40:59;;;;;;;54.15;26.90;;;11.10;99.90;;;;;;5073424;28;20500;-74
2021/04/30 01:43:25;;;;;;;52.60;28.33;;;11.10;99.90;;;;;;5074476;28;20028;-73
2021/04/30 01:45:59;;;;;;;58.22;30.23;;;11.10;99.90;;;;;;5074291;28;20402;-74
2021/04/30 01:48:29;;;;;;;63.92;30.70;;;11.10;99.90;;;;;;5073048;28;20471;-73
2021/04/30 01:50:56;;;;;;;58.00;29.15;;;11.20;99.90;;;;;;5074333;28;20425;-73
2021/04/30 01:53:27;;;;;;;52.40;28.73;;;11.10;99.90;;;;;;5074348;28;20024;-74
2021/04/30 01:55:53;;;;;;;64.72;31.02;;;11.10;99.90;;;;;;5073016;28;20025;-73
2021/04/30 01:58:19;;;;;;;56.90;29.38;;;11.10;99.90;;;;;;5074039;28;20064;-73
2021/04/30 02:00:46;;;;;;;58.05;30.35;;;11.10;99.90;;;;;;5073113;28;20386;-74
2021/04/30 02:03:13;;;;;;;59.00;29.75;;;11.20;99.90;;;;;;5072732;28;20060;-74
2021/04/30 02:05:39;;;;;;;59.67;30.35;;;11.20;99.90;;;;;;5072761;28;20020;-73
2021/04/30 02:08:11;;;;;;;59.20;29.67;;;11.10;99.90;;;;;;5073599;28;20032;-74
2021/04/30 02:10:37;;;;;;;55.88;30.95;;;11.10;99.90;;;;;;5073996;28;20039;-74
2021/04/30 02:13:04;;;;;;;58.97;30.27;;;11.10;99.90;;;;;;5073024;28;20020;-73
2021/04/30 02:15:35;;;;;;;57.03;28.98;;;11.10;99.90;;;;;;5073731;28;20028;-74
2021/04/30 02:18:01;;;;;;;55.75;29.02;;;11.10;99.90;;;;;;5072451;28;20025;-73
2021/04/30 02:20:27;;;;;;;57.33;28.45;;;11.10;99.90;;;;;;5073949;28;20024;-74
2021/04/30 02:22:53;;;;;;;64.38;30.17;;;11.20;99.90;;;;;;5073650;28;20024;-74
2021/04/30 02:25:21;;;;;;;63.00;30.60;;;11.10;99.90;;;;;;5072362;28;20021;-73
2021/04/30 02:27:49;;;;;;;60.55;29.80;;;11.20;99.90;;;;;;5073476;28;20028;-73
2021/04/30 02:30:18;;;;;;;56.15;29.73;;;11.20;99.90;;;;;;5073606;28;20534;-73
2021/04/30 02:32:44;;;;;;;54.65;29.38;;;11.20;99.90;;;;;;5071371;28;20033;-73
2021/04/30 02:35:14;;;;;;;59.47;29.25;;;11.20;99.90;;;;;;5071743;28;20024;-74
2021/04/30 02:37:41;;;;;;;61.53;30.27;;;11.20;99.90;;;;;;5071816;28;20020;-73
2021/04/30 02:40:09;;;;;;;61.03;30.25;;;11.30;99.90;;;;;;5072058;28;20013;-74
2021/04/30 02:42:35;;;;;;;59.08;29.08;;;11.30;99.90;;;;;;5072080;28;20478;-73
2021/04/30 02:45:02;;;;;;;64.32;31.45;;;11.30;99.90;;;;;;5073345;28;20025;-73
2021/04/30 02:47:32;;;;;;;57.65;29.80;;;11.30;99.90;;;;;;5071925;28;20390;-73
2021/04/30 02:49:59;;;;;;;60.22;28.95;;;11.40;99.90;;;;;;5071886;28;20387;-74
2021/04/30 02:52:25;;;;;;;59.20;29.38;;;11.40;99.90;;;;;;5072943;28;20115;-74
2021/04/30 02:54:51;;;;;;;58.67;29.30;;;11.40;99.90;;;;;;5072721;28;20102;-75
2021/04/30 02:57:17;;;;;;;62.30;29.35;;;11.30;99.90;;;;;;5072894;28;20035;-74
2021/04/30 02:59:43;;;;;;;59.28;30.58;;;11.40;99.90;;;;;;5072988;28;20040;-73
2021/04/30 03:02:09;;;;;;;67.45;29.27;;;11.40;99.90;;;;;;5071519;28;20028;-73
2021/04/30 03:04:34;;;;;;;56.75;28.40;;;11.30;99.90;;;;;;5073154;28;20066;-74
2021/04/30 03:07:00;;;;;;;61.65;28.92;;;11.30;99.90;;;;;;5071640;28;20453;-74
2021/04/30 03:09:26;;;;;;;66.00;27.98;;;11.40;99.90;;;;;;5072995;28;20032;-75
2021/04/30 03:11:51;;;;;;;60.72;27.85;;;11.30;99.90;;;;;;5071410;28;20126;-73
2021/04/30 03:14:17;;;;;;;61.20;28.95;;;11.30;99.90;;;;;;5072955;28;20420;-75
2021/04/30 03:16:43;;;;;;;56.20;28.45;;;11.30;99.90;;;;;;5072733;28;20032;-73
2021/04/30 03:19:12;;;;;;;56.53;28.17;;;11.30;99.90;;;;;;5072865;28;20382;-74
2021/04/30 03:21:38;;;;;;;60.53;29.85;;;11.30;99.90;;;;;;5072873;28;20070;-74
2021/04/30 03:24:05;;;;;;;71.63;35.05;;;11.30;99.90;;;;;;5072677;28;20029;-76
2021/04/30 03:26:31;;;;;;;75.45;33.30;;;11.30;99.90;;;;;;5072757;28;20078;-74
2021/04/30 03:28:57;;;;;;;69.63;34.65;;;11.30;99.90;;;;;;5071448;28;20550;-75
2021/04/30 03:31:22;;;;;;;66.80;32.75;;;11.30;99.90;;;;;;5072248;28;20394;-75
2021/04/30 03:33:48;;;;;;;62.90;32.28;;;11.30;99.90;;;;;;5072555;28;20374;-73
2021/04/30 03:36:14;;;;;;;59.88;28.13;;;11.40;99.90;;;;;;5072508;28;20028;-75
2021/04/30 03:38:39;;;;;;;53.10;27.60;;;11.40;99.90;;;;;;5071358;28;20032;-73
2021/04/30 03:41:05;;;;;;;56.88;26.83;;;11.40;99.90;;;;;;5071394;28;20023;-74
2021/04/30 03:43:30;;;;;;;60.60;30.13;;;11.40;99.90;;;;;;5072387;28;20039;-73
2021/04/30 03:45:58;;;;;;;53.10;27.40;;;11.30;99.90;;;;;;5075414;28;20394;-75
2021/04/30 03:48:25;;;;;;;53.63;26.98;;;11.30;99.90;;;;;;5075725;28;20036;-73
2021/04/30 03:50:51;;;;;;;55.33;27.73;;;11.30;99.90;;;;;;5076540;28;20033;-73
2021/04/30 03:53:17;;;;;;;59.95;28.17;;;11.30;99.90;;;;;;5076133;28;20048;-75
2021/04/30 03:55:43;;;;;;;49.47;25.15;;;11.30;99.90;;;;;;5076647;28;20512;-75
2021/04/30 03:58:08;;;;;;;55.30;28.55;;;11.30;99.90;;;;;;5075098;28;20027;-73
2021/04/30 04:00:34;;;;;;;53.42;25.65;;;11.40;99.90;;;;;;5058222;28;20112;-75
2021/04/30 04:03:00;;;;;;;53.95;25.75;;;11.40;99.90;;;;;;5056247;28;20403;-74
2021/04/30 04:05:25;;;;;;;58.10;28.50;;;11.40;99.90;;;;;;5055099;28;20019;-76
2021/04/30 04:07:51;;;;;;;62.95;32.35;;;11.30;99.90;;;;;;5054923;28;20074;-74
2021/04/30 04:10:16;;;;;;;63.42;28.75;;;11.30;99.90;;;;;;5054891;28;20368;-74
2021/04/30 04:12:42;;;;;;;55.85;29.90;;;11.40;99.90;;;;;;5056187;28;20064;-73
2021/04/30 04:15:09;;;;;;;57.08;25.67;;;11.30;99.90;;;;;;5054822;28;20394;-75
2021/04/30 04:17:35;;;;;;;55.15;24.48;;;11.20;99.90;;;;;;5054817;28;20021;-73
2021/04/30 04:20:00;;;;;;;54.72;25.63;;;11.30;99.90;;;;;;5055671;28;20364;-74
2021/04/30 04:22:26;;;;;;;57.97;25.85;;;11.30;99.90;;;;;;5065037;28;20071;-73
2021/04/30 04:24:52;;;;;;;53.92;25.10;;;11.30;99.90;;;;;;5076051;28;20032;-75
2021/04/30 04:27:18;;;;;;;52.13;24.30;;;11.30;99.90;;;;;;5074502;28;20037;-74
2021/04/30 04:29:43;;;;;;;57.55;25.50;;;11.20;99.90;;;;;;5074615;28;20386;-74
2021/04/30 04:32:09;;;;;;;55.40;24.42;;;11.30;99.90;;;;;;5075623;28;20107;-73
2021/04/30 04:34:35;;;;;;;55.60;25.13;;;11.30;99.90;;;;;;5075329;28;20017;-74
2021/04/30 04:37:01;;;;;;;60.30;27.15;;;11.30;99.90;;;;;;5074444;28;20028;-73
2021/04/30 04:39:29;;;;;;;58.97;27.10;;;11.30;99.90;;;;;;5074409;28;20017;-75
2021/04/30 04:41:55;;;;;;;61.22;27.38;;;11.20;99.90;;;;;;5074190;28;20419;-73
2021/04/30 04:44:21;;;;;;;53.45;24.58;;;11.30;99.90;;;;;;5074407;28;20368;-74
2021/04/30 04:46:46;;;;;;;56.08;25.00;;;11.20;99.90;;;;;;5075469;28;20016;-72
2021/04/30 04:49:12;;;;;;;58.15;27.90;;;11.20;99.90;;;;;;5075465;28;20545;-73
2021/04/30 04:51:38;;;;;;;60.08;27.48;;;11.20;99.90;;;;;;5075001;28;20401;-74
2021/04/30 04:54:06;;;;;;;64.28;28.40;;;11.20;99.90;;;;;;5075506;28;20561;-74
2021/04/30 04:56:32;;;;;;;61.03;28.48;;;11.20;99.90;;;;;;5073761;28;20024;-73
2021/04/30 04:58:58;;;;;;;60.53;29.08;;;11.20;99.90;;;;;;5073709;28;20374;-73
2021/04/30 05:01:24;;;;;;;59.53;29.55;;;11.20;99.90;;;;;;5053960;28;20480;-73
2021/04/30 05:03:50;;;;;;;59.58;28.95;;;11.20;99.90;;;;;;5053496;28;20139;-74
2021/04/30 05:06:16;;;;;;;64.78;29.42;;;11.20;99.90;;;;;;5055255;28;20395;-75
2021/04/30 05:08:42;;;;;;;65.63;31.52;;;11.20;99.90;;;;;;5053921;28;20025;-73
2021/04/30 05:11:07;;;;;;;65.53;31.00;;;11.30;99.90;;;;;;5053705;28;20025;-73
2021/04/30 05:13:34;;;;;;;66.35;30.95;;;11.30;99.90;;;;;;5059557;28;20025;-73
2021/04/30 05:16:01;;;;;;;63.58;30.83;;;11.30;99.90;;;;;;5056895;28;20029;-73
2021/04/30 05:18:27;;;;;;;58.47;28.10;;;11.40;99.90;;;;;;5057021;28;20031;-74
2021/04/30 05:20:53;;;;;;;61.13;29.88;;;11.40;99.90;;;;;;5061995;28;20025;-73
2021/04/30 05:23:19;;;;;;;69.40;29.52;;;11.50;99.90;;;;;;5064092;28;20024;-73
2021/04/30 05:25:47;;;;;;;52.42;26.80;;;11.50;99.90;;;;;;5065192;28;20442;-74
2021/04/30 05:28:12;;;;;;;46.00;25.33;;;11.60;99.90;;;;;;5056036;28;20021;-74
2021/04/30 05:30:38;;;;;;;50.33;25.88;;;11.60;99.90;;;;;;5054661;28;20039;-73
2021/04/30 05:33:04;;;;;;;50.83;25.35;;;11.60;99.90;;;;;;5054689;28;20032;-73
2021/04/30 05:35:30;;;;;;;46.70;25.38;;;11.70;99.90;;;;;;5054712;28;20033;-73
2021/04/30 05:37:56;;;;;;;42.88;23.58;;;11.70;99.90;;;;;;5054523;28;20032;-73
2021/04/30 05:40:22;;;;;;;40.35;21.52;;;11.90;99.90;;;;;;5053458;28;20021;-73
2021/04/30 05:42:48;;;;;;;46.92;22.65;;;11.90;99.90;;;;;;5054489;28;20379;-73
2021/04/30 05:45:14;;;;;;;29.10;16.05;;;12.00;99.90;;;;;;5054396;28;20021;-74
2021/04/30 05:47:40;;;;;;;24.50;13.55;;;12.00;99.90;;;;;;5054281;28;20036;-73
2021/04/30 05:50:06;;;;;;;25.10;14.60;;;11.90;99.90;;;;;;5052780;28;20426;-73
2021/04/30 05:52:32;;;;;;;21.38;12.73;;;12.00;99.90;;;;;;5067774;28;20039;-72
2021/04/30 05:54:57;;;;;;;22.55;13.38;;;12.00;99.90;;;;;;5071930;28;20111;-74
2021/04/30 05:57:23;;;;;;;18.13;11.73;;;12.10;99.90;;;;;;5068498;28;20025;-73
2021/04/30 05:59:49;;;;;;;19.65;11.98;;;12.10;99.90;;;;;;5071678;28;20115;-73
2021/04/30 06:02:14;;;;;;;19.55;11.90;;;12.20;99.90;;;;;;5073130;28;20540;-72
2021/04/30 06:04:40;;;;;;;17.20;9.90;;;12.30;99.90;;;;;;5072209;28;20021;-74
2021/04/30 06:07:06;;;;;;;16.10;10.38;;;12.20;99.90;;;;;;5068410;28;20024;-73
2021/04/30 06:09:31;;;;;;;17.75;11.32;;;12.40;99.90;;;;;;5072901;28;20025;-74
2021/04/30 06:11:57;;;;;;;16.45;10.05;;;12.50;99.90;;;;;;5072563;28;20402;-73
2021/04/30 06:14:29;;;;;;;15.77;10.10;;;12.50;99.90;;;;;;5071887;28;20037;-74
2021/04/30 06:16:55;;;;;;;11.50;7.22;;;12.50;99.90;;;;;;5069316;28;20029;-72
2021/04/30 06:19:21;;;;;;;11.30;7.68;;;12.40;93.50;;;;;;5071457;28;20027;-74
2021/04/30 06:21:47;;;;;;;11.10;7.43;;;12.30;89.60;;;;;;5072358;28;20025;-73
2021/04/30 06:24:12;;;;;;;9.70;7.03;;;12.20;95.10;;;;;;5071102;28;20539;-72
2021/04/30 06:26:38;;;;;;;8.65;6.65;;;12.20;88.70;;;;;;5070791;28;20384;-73
2021/04/30 06:29:03;;;;;;;13.45;6.75;;;12.20;90.90;;;;;;5064827;28;20537;-72
2021/04/30 06:31:29;;;;;;;10.52;6.75;;;12.10;91.70;;;;;;5070629;28;20133;-72
2021/04/30 06:33:55;;;;;;;11.18;6.20;;;12.10;95.10;;;;;;5071278;28;20035;-72
2021/04/30 06:36:21;;;;;;;9.95;6.78;;;12.10;86.30;;;;;;5072413;28;20024;-72
2021/04/30 06:38:47;;;;;;;9.23;6.45;;;12.20;88.90;;;;;;5071247;28;20057;-72
2021/04/30 06:41:13;;;;;;;8.63;6.22;;;12.20;89.80;;;;;;5072160;28;20039;-73
2021/04/30 06:43:39;;;;;;;11.70;6.50;;;12.30;88.20;;;;;;5066753;28;20394;-72
2021/04/30 06:46:04;;;;;;;15.20;7.38;;;12.30;84.30;;;;;;5071910;28;20025;-72
2021/04/30 06:48:30;;;;;;;9.50;7.55;;;12.40;86.80;;;;;;5066735;28;20025;-72
2021/04/30 06:50:56;;;;;;;7.43;6.47;;;12.50;88.00;;;;;;5066749;28;20034;-73
2021/04/30 06:53:21;;;;;;;10.90;7.25;;;12.60;83.80;;;;;;5072183;28;20485;-73
2021/04/30 06:55:47;;;;;;;8.88;6.50;;;12.70;84.80;;;;;;5069682;28;20016;-74
2021/04/30 06:58:12;;;;;;;8.65;5.68;;;12.80;83.10;;;;;;5071036;28;20147;-72
2021/04/30 07:00:38;;;;;;;7.85;5.85;;;12.80;78.70;;;;;;5063606;28;20028;-73
2021/04/30 07:03:04;;;;;;;8.65;6.03;;;12.80;80.90;;;;;;5060125;28;20037;-73
2021/04/30 07:05:30;;;;;;;8.88;6.30;;;12.80;79.30;;;;;;5060257;28;20464;-74
2021/04/30 07:08:01;;;;;;;10.48;6.63;;;12.80;77.70;;;;;;5062144;28;20021;-73
2021/04/30 07:10:27;;;;;;;6.82;5.72;;;12.80;76.40;;;;;;5062747;28;20027;-73
2021/04/30 07:12:52;;;;;;;9.52;5.60;;;13.00;80.90;;;;;;5058387;28;20386;-72
2021/04/30 07:15:18;;;;;;;8.02;6.50;;;13.00;79.30;;;;;;5058432;28;20035;-74
2021/04/30 07:17:44;;;;;;;7.72;5.78;;;12.90;70.30;;;;;;5059147;28;20470;-73
2021/04/30 07:20:10;;;;;;;10.25;6.32;;;12.80;71.50;;;;;;5062530;28;20047;-74
2021/04/30 07:22:36;;;;;;;7.55;5.40;;;12.90;72.80;;;;;;5059826;28;20513;-73
2021/04/30 07:25:02;;;;;;;8.68;5.90;;;13.00;74.60;;;;;;5063595;28;20060;-73
2021/04/30 07:27:28;;;;;;;8.85;6.22;;;13.00;71.50;;;;;;5063477;28;20032;-73
2021/04/30 07:29:53;;;;;;;7.75;5.35;;;13.00;74.20;;;;;;5059972;28;20059;-73
2021/04/30 07:32:19;;;;;;;13.90;7.40;;;13.00;73.90;;;;;;5060281;28;20063;-73
2021/04/30 07:34:45;;;;;;;7.55;5.53;;;13.00;79.10;;;;;;5062195;28;20067;-74
2021/04/30 07:37:11;;;;;;;6.45;5.70;;;12.90;75.00;;;;;;5062930;28;20031;-73
2021/04/30 07:39:36;;;;;;;8.07;5.60;;;12.80;72.30;;;;;;5061448;28;20021;-74
2021/04/30 07:42:03;;;;;;;13.70;6.00;;;12.80;73.70;;;;;;5060617;28;20025;-73
2021/04/30 07:44:29;;;;;;;7.90;6.10;;;12.80;71.90;;;;;;5055923;28;20032;-73
2021/04/30 07:46:55;;;;;;;8.80;5.97;;;12.80;70.20;;;;;;5067974;28;20441;-73
2021/04/30 07:49:21;;;;;;;8.65;6.05;;;13.10;70.70;;;;;;5069985;28;20040;-73
2021/04/30 07:51:46;;;;;;;6.93;5.35;;;13.20;67.30;;;;;;5070897;28;20485;-72
2021/04/30 07:54:12;;;;;;;9.25;5.65;;;13.20;69.30;;;;;;5070256;28;20569;-73
2021/04/30 07:56:38;;;;;;;7.28;5.18;;;13.30;70.40;;;;;;5066036;28;20032;-72
2021/04/30 07:59:04;;;;;;;12.25;6.18;;;13.50;68.90;;;;;;5067132;28;20406;-73
2021/04/30 08:01:30;;;;;;;9.27;6.00;;;13.60;72.70;;;;;;5068562;28;20039;-73
2021/04/30 08:03:56;;;;;;;7.53;5.35;;;13.80;70.90;;;;;;5070941;28;20029;-72
2021/04/30 08:06:22;;;;;;;7.88;5.53;;;14.00;67.00;;;;;;5070026;28;20023;-73
2021/04/30 08:08:47;;;;;;;7.18;5.45;;;13.90;67.00;;;;;;5070477;28;20497;-73
2021/04/30 08:11:13;;;;;;;9.23;5.45;;;14.20;68.70;;;;;;5067005;28;20033;-72
2021/04/30 08:13:39;;;;;;;7.55;5.97;;;14.20;66.60;;;;;;5070578;28;20465;-73
2021/04/30 08:16:05;;;;;;;6.78;5.60;;;14.20;66.00;;;;;;5069709;28;20039;-73
2021/04/30 08:18:31;;;;;;;9.10;6.93;;;14.30;61.10;;;;;;5070853;28;20370;-73
2021/04/30 08:20:57;;;;;;;8.15;5.78;;;14.50;63.30;;;;;;5069838;28;20367;-73
2021/04/30 08:23:22;;;;;;;7.07;6.15;;;14.70;65.10;;;;;;5069347;28;20031;-72
2021/04/30 08:25:48;;;;;;;8.10;6.05;;;14.80;61.80;;;;;;5070826;28;20032;-75
2021/04/30 08:28:14;;;;;;;8.30;5.70;;;15.00;62.20;;;;;;5069700;28;20111;-72
2021/04/30 08:30:40;;;;;;;8.20;6.03;;;15.30;61.50;;;;;;5070538;28;20037;-73
2021/04/30 08:33:06;;;;;;;9.25;6.68;;;15.60;60.70;;;;;;5073217;28;20029;-73
2021/04/30 08:35:31;;;;;;;8.60;6.55;;;15.70;61.30;;;;;;5073085;28;20016;-73
2021/04/30 08:37:58;;;;;;;8.43;6.30;;;15.50;58.00;;;;;;5073265;28;20440;-73
2021/04/30 08:40:24;;;;;;;10.10;5.80;;;15.40;58.50;;;;;;5072961;28;20103;-73
2021/04/30 08:42:53;;;;;;;8.57;6.18;;;15.30;59.70;;;;;;5074357;28;20509;-73
2021/04/30 08:45:19;;;;;;;8.20;5.97;;;15.10;57.60;;;;;;5071480;28;20033;-75
2021/04/30 08:47:45;;;;;;;7.60;5.50;;;15.00;56.40;;;;;;5068671;28;20021;-74
2021/04/30 08:50:13;;;;;;;8.95;5.93;;;15.00;55.50;;;;;;5073210;28;20119;-73
2021/04/30 08:52:39;;;;;;;10.18;5.38;;;15.10;57.30;;;;;;5072241;28;20067;-73
2021/04/30 08:55:10;;;;;;;13.05;6.97;;;14.80;56.80;;;;;;5073297;28;20028;-74
2021/04/30 08:57:36;;;;;;;13.32;6.82;;;15.00;57.00;;;;;;5072228;28;20021;-73
2021/04/30 09:00:04;;;;;;;11.43;6.68;;;15.40;58.10;;;;;;5072467;28;20054;-73
2021/04/30 09:02:37;;;;;;;11.05;7.32;;;15.70;56.40;;;;;;5072140;28;20538;-73
2021/04/30 09:05:08;;;;;;;10.75;6.80;;;15.70;55.20;;;;;;5072259;28;20046;-73
2021/04/30 09:07:42;;;;;;;11.73;7.35;;;15.60;55.10;;;;;;5067304;28;20025;-72
2021/04/30 09:10:14;;;;;;;9.60;6.88;;;15.50;56.80;;;;;;5067090;28;20039;-72
2021/04/30 09:12:44;;;;;;;9.57;6.43;;;15.60;55.90;;;;;;5068826;28;20474;-73
2021/04/30 09:15:21;;;;;;;8.52;7.10;;;15.90;57.20;;;;;;5071353;28;20025;-74
2021/04/30 09:17:47;;;;;;;9.20;7.00;;;15.90;55.70;;;;;;5070992;28;20039;-72
2021/04/30 09:20:13;;;;;;;15.38;7.53;;;16.00;53.10;;;;;;5072752;28;20017;-73
2021/04/30 09:22:41;;;;;;;9.50;5.43;;;16.10;54.00;;;;;;5071459;28;20355;-73
2021/04/30 09:25:19;;;;;;;8.98;5.82;;;15.90;52.50;;;;;;5072078;28;20017;-73
2021/04/30 09:27:49;;;;;;;6.22;5.38;;;16.10;52.70;;;;;;5073081;28;20028;-73
2021/04/30 09:30:26;;;;;;;7.22;4.80;;;16.20;51.90;;;;;;5072537;28;20024;-74
2021/04/30 09:33:16;;;;;;;10.32;5.05;;;16.40;51.00;;;;;;5071037;28;20077;-73
2021/04/30 09:35:41;;;;;;;10.38;6.15;;;16.60;52.90;;;;;;5071735;28;20024;-73
2021/04/30 09:38:16;;;;;;;6.82;5.78;;;16.70;51.20;;;;;;5063802;28;20058;-74
2021/04/30 09:40:42;;;;;;;6.32;5.72;;;16.70;47.90;;;;;;5069455;28;20021;-75
2021/04/30 09:43:10;;;;;;;10.25;5.63;;;16.90;48.90;;;;;;5069444;28;20102;-74
2021/04/30 09:45:37;;;;;;;9.27;5.13;;;17.00;48.20;;;;;;5070752;28;20024;-74
2021/04/30 09:48:04;;;;;;;9.80;4.85;;;16.80;48.80;;;;;;5070482;28;20113;-73
2021/04/30 09:50:31;;;;;;;4.97;4.30;;;16.80;48.20;;;;;;5072146;28;20024;-73
2021/04/30 09:52:57;;;;;;;7.47;5.53;;;16.60;48.30;;;;;;5070951;28;20060;-73
2021/04/30 09:55:39;;;;;;;6.85;4.63;;;16.70;48.40;;;;;;5057266;28;20060;-74
2021/04/30 09:58:16;;;;;;;8.68;5.03;;;16.90;47.80;;;;;;5057124;28;20021;-73
2021/04/30 10:00:43;;;;;;;6.07;4.50;;;16.80;46.00;;;;;;5058988;28;20076;-73
2021/04/30 10:03:12;;;;;;;6.97;5.15;;;17.10;46.20;;;;;;5061055;28;20044;-73
2021/04/30 10:05:59;;;;;;;8.13;5.43;;;17.20;45.70;;;;;;5062386;28;20532;-74
2021/04/30 10:08:25;;;;;;;10.60;6.45;;;17.10;46.60;;;;;;5062790;28;20024;-73
2021/04/30 10:10:50;;;;;;;8.40;6.55;;;17.00;46.70;;;;;;5059736;28;20047;-74
2021/04/30 10:13:16;;;;;;;9.38;7.57;;;17.30;47.50;;;;;;5060429;28;20021;-73
2021/04/30 10:15:41;;;;;;;12.63;6.78;;;17.40;47.30;;;;;;5062024;28;20502;-73
2021/04/30 10:18:07;;;;;;;8.63;6.85;;;17.50;47.20;;;;;;5059934;28;20032;-73
2021/04/30 10:20:33;;;;;;;11.40;7.05;;;17.50;46.10;;;;;;5062190;28;20040;-74
2021/04/30 10:23:01;;;;;;;11.63;7.07;;;17.20;45.70;;;;;;5059489;28;20017;-73
2021/04/30 10:25:28;;;;;;;9.30;6.72;;;17.40;47.20;;;;;;5061192;28;20035;-73
2021/04/30 10:27:55;;;;;;;10.77;7.57;;;17.50;47.40;;;;;;5062636;28;20473;-73
2021/04/30 10:30:40;;;;;;;9.13;8.15;;;17.50;47.30;;;;;;5062212;28;20021;-74
2021/04/30 10:33:12;;;;;;;11.88;6.97;;;17.40;46.40;;;;;;5061163;28;20032;-73
2021/04/30 10:35:59;;;;;;;14.93;8.43;;;17.30;46.80;;;;;;5067784;28;20024;-74
2021/04/30 10:38:28;;;;;;;8.05;7.25;;;17.30;47.30;;;;;;5071698;28;20031;-74
2021/04/30 10:41:01;;;;;;;9.07;7.18;;;17.20;46.10;;;;;;5071422;28;20017;-73
2021/04/30 10:43:27;;;;;;;9.73;7.50;;;17.20;46.00;;;;;;5071576;28;20029;-73
2021/04/30 10:46:12;;;;;;;9.00;6.68;;;17.10;46.10;;;;;;5072986;28;20021;-74
2021/04/30 10:49:04;;;;;;;12.52;8.82;;;17.10;46.50;;;;;;5071479;28;20112;-73
2021/04/30 10:51:31;;;;;;;10.50;8.38;;;16.80;46.30;;;;;;5073242;28;20043;-74
2021/04/30 10:54:23;;;;;;;11.05;8.23;;;17.20;47.60;;;;;;5072260;28;20027;-73
2021/04/30 10:57:09;;;;;;;12.73;7.15;;;17.30;47.10;;;;;;5073278;28;20060;-73
2021/04/30 10:59:40;;;;;;;7.68;6.88;;;17.50;45.70;;;;;;5071688;28;20041;-73
2021/04/30 11:02:17;;;;;;;8.30;6.72;;;17.60;44.80;;;;;;5071940;28;20036;-73
2021/04/30 11:05:05;;;;;;;8.50;6.85;;;17.70;44.30;;;;;;5071284;28;20024;-74
2021/04/30 11:07:45;;;;;;;12.15;7.10;;;17.90;45.60;;;;;;5071341;28;20028;-73
2021/04/30 11:10:23;;;;;;;11.93;7.53;;;18.00;46.10;;;;;;5072509;28;20029;-74
2021/04/30 11:13:07;;;;;;;8.63;6.18;;;18.10;45.00;;;;;;5072624;28;20085;-73
2021/04/30 11:15:54;;;;;;;7.47;6.78;;;18.10;45.20;;;;;;5071413;28;20039;-73
2021/04/30 11:18:21;;;;;;;6.80;5.97;;;18.20;43.40;;;;;;5071349;28;20032;-74
2021/04/30 11:21:09;;;;;;;6.63;5.93;;;18.00;41.70;;;;;;5072894;28;20071;-74
2021/04/30 11:23:42;;;;;;;7.03;5.38;;;18.00;41.40;;;;;;5071217;28;20375;-73
2021/04/30 11:26:32;;;;;;;7.10;5.20;;;18.10;43.70;;;;;;5072400;28;20020;-73
2021/04/30 11:28:58;;;;;;;9.10;5.90;;;18.00;40.90;;;;;;5064534;28;20585;-73
2021/04/30 11:31:27;;;;;;;9.07;6.35;;;17.90;41.50;;;;;;5072201;28;20111;-74
2021/04/30 11:34:18;;;;;;;9.27;6.00;;;17.70;41.70;;;;;;5072455;28;20052;-73
2021/04/30 11:36:55;;;;;;;12.73;6.65;;;18.10;44.70;;;;;;5072539;28;20025;-74
2021/04/30 11:39:29;;;;;;;9.13;6.18;;;18.40;44.60;;;;;;5071120;28;20102;-73
2021/04/30 11:42:04;;;;;;;8.93;7.05;;;18.40;43.10;;;;;;5070981;28;20020;-74
2021/04/30 11:44:30;;;;;;;12.35;7.35;;;18.30;42.00;;;;;;5071468;28;20098;-74
2021/04/30 11:47:02;;;;;;;7.55;6.45;;;18.40;42.50;;;;;;5072355;28;20056;-73
2021/04/30 11:49:29;;;;;;;9.60;6.23;;;18.60;43.60;;;;;;5071182;28;20425;-74
2021/04/30 11:51:55;;;;;;;9.40;7.05;;;18.70;42.80;;;;;;5070972;28;20153;-74
2021/04/30 11:54:27;;;;;;;9.60;6.65;;;18.50;40.60;;;;;;5069212;28;20119;-74
2021/04/30 11:56:57;;;;;;;14.20;7.45;;;18.80;42.00;;;;;;5070875;28;20025;-74
2021/04/30 11:59:23;;;;;;;11.13;7.13;;;19.00;42.70;;;;;;5071724;28;20177;-74
2021/04/30 12:02:14;;;;;;;8.52;6.53;;;19.10;42.20;;;;;;5069865;28;20058;-74
2021/04/30 12:04:41;;;;;;;8.27;5.90;;;19.10;40.50;;;;;;5072325;28;20094;-74
2021/04/30 12:07:08;;;;;;;8.75;5.78;;;19.10;39.70;;;;;;5072008;28;20052;-74
2021/04/30 12:09:34;;;;;;;10.25;5.30;;;19.20;38.60;;;;;;5065954;28;20032;-74
2021/04/30 12:12:18;;;;;;;7.38;5.45;;;18.90;38.20;;;;;;5064284;28;20032;-74
2021/04/30 12:14:47;;;;;;;11.18;5.88;;;18.50;38.90;;;;;;5062830;28;20502;-73
2021/04/30 12:17:20;;;;;;;7.82;5.70;;;18.40;39.40;;;;;;5064037;28;20025;-73
2021/04/30 12:20:01;;;;;;;9.25;5.95;;;18.40;38.40;;;;;;5065230;28;20029;-73
2021/04/30 12:22:28;;;;;;;5.55;4.57;;;18.70;40.10;;;;;;5065753;28;20021;-74
2021/04/30 12:24:54;;;;;;;8.35;4.35;;;18.90;39.20;;;;;;5064803;28;20028;-74
2021/04/30 12:27:28;;;;;;;5.57;4.07;;;19.00;39.50;;;;;;5063726;28;20021;-73
2021/04/30 12:29:54;;;;;;;5.15;3.90;;;18.80;38.00;;;;;;5064181;28;20534;-74
2021/04/30 12:32:28;;;;;;;4.78;4.32;;;18.60;37.30;;;;;;5062236;28;20032;-74
2021/04/30 12:34:56;;;;;;;6.63;4.72;;;18.70;38.60;;;;;;5061650;28;20210;-73
2021/04/30 12:37:23;;;;;;;6.15;4.68;;;18.90;38.80;;;;;;5071343;28;20111;-73
2021/04/30 12:39:49;;;;;;;8.93;5.25;;;18.80;37.70;;;;;;5062150;28;20032;-73